sensor_id;sensor_type;location;lat;lon;timestamp;temperature;humidity
74540;SHT31;66042;51.090;-115.340;2023-11-21T00:00:08;4.59;34.21
74540;SHT31;66042;51.090;-115.340;2023-11-21T00:02:38;4.55;34.10
74540;SHT31;66042;51.090;-115.340;2023-11-21T00:05:09;4.48;34.21
74540;SHT31;66042;51.090;-115.340;2023-11-21T00:07:39;4.44;34.34
74540;SHT31;66042;51.090;-115.340;2023-11-21T00:10:07;4.42;34.44
74540;SHT31;66042;51.090;-115.340;2023-11-21T00:12:36;4.37;34.50
74540;SHT31;66042;51.090;-115.340;2023-11-21T00:15:03;4.36;34.60
74540;SHT31;66042;51.090;-115.340;2023-11-21T00:17:34;4.36;34.86
74540;SHT31;66042;51.090;-115.340;2023-11-21T00:20:01;4.34;34.96
74540;SHT31;66042;51.090;-115.340;2023-11-21T00:22:32;4.35;34.78
74540;SHT31;66042;51.090;-115.340;2023-11-21T00:25:02;4.34;34.95
74540;SHT31;66042;51.090;-115.340;2023-11-21T00:27:30;4.34;35.01
74540;SHT31;66042;51.090;-115.340;2023-11-21T00:29:57;4.33;35.07
74540;SHT31;66042;51.090;-115.340;2023-11-21T00:32:24;4.30;35.26
74540;SHT31;66042;51.090;-115.340;2023-11-21T00:34:50;4.25;35.40
74540;SHT31;66042;51.090;-115.340;2023-11-21T00:37:17;4.24;35.15
74540;SHT31;66042;51.090;-115.340;2023-11-21T00:39:44;4.25;35.02
74540;SHT31;66042;51.090;-115.340;2023-11-21T00:42:11;4.25;35.12
74540;SHT31;66042;51.090;-115.340;2023-11-21T00:44:38;4.23;35.04
74540;SHT31;66042;51.090;-115.340;2023-11-21T00:47:05;4.21;35.14
74540;SHT31;66042;51.090;-115.340;2023-11-21T00:49:33;4.21;35.36
74540;SHT31;66042;51.090;-115.340;2023-11-21T00:52:00;4.21;35.51
74540;SHT31;66042;51.090;-115.340;2023-11-21T00:54:28;4.16;35.75
74540;SHT31;66042;51.090;-115.340;2023-11-21T00:56:55;4.06;35.99
74540;SHT31;66042;51.090;-115.340;2023-11-21T00:59:23;4.03;36.09
74540;SHT31;66042;51.090;-115.340;2023-11-21T01:01:50;4.01;36.10
74540;SHT31;66042;51.090;-115.340;2023-11-21T01:04:18;4.01;36.10
74540;SHT31;66042;51.090;-115.340;2023-11-21T01:06:44;3.99;36.21
74540;SHT31;66042;51.090;-115.340;2023-11-21T01:09:11;3.95;37.53
74540;SHT31;66042;51.090;-115.340;2023-11-21T01:11:38;3.97;36.31
74540;SHT31;66042;51.090;-115.340;2023-11-21T01:14:05;3.99;36.22
74540;SHT31;66042;51.090;-115.340;2023-11-21T01:16:35;4.01;36.22
74540;SHT31;66042;51.090;-115.340;2023-11-21T01:19:02;4.03;36.24
74540;SHT31;66042;51.090;-115.340;2023-11-21T01:21:30;4.03;36.27
74540;SHT31;66042;51.090;-115.340;2023-11-21T01:23:57;4.02;36.43
74540;SHT31;66042;51.090;-115.340;2023-11-21T01:26:24;4.01;36.64
74540;SHT31;66042;51.090;-115.340;2023-11-21T01:28:51;3.95;36.78
74540;SHT31;66042;51.090;-115.340;2023-11-21T01:31:17;3.94;36.80
74540;SHT31;66042;51.090;-115.340;2023-11-21T01:33:45;3.93;36.78
74540;SHT31;66042;51.090;-115.340;2023-11-21T01:36:14;3.92;36.95
74540;SHT31;66042;51.090;-115.340;2023-11-21T01:38:40;3.91;37.03
74540;SHT31;66042;51.090;-115.340;2023-11-21T01:41:08;3.82;37.57
74540;SHT31;66042;51.090;-115.340;2023-11-21T01:43:37;3.72;37.67
74540;SHT31;66042;51.090;-115.340;2023-11-21T01:46:05;3.72;37.34
74540;SHT31;66042;51.090;-115.340;2023-11-21T01:48:33;3.75;37.27
74540;SHT31;66042;51.090;-115.340;2023-11-21T01:51:01;3.79;37.30
74540;SHT31;66042;51.090;-115.340;2023-11-21T01:53:28;3.81;37.29
74540;SHT31;66042;51.090;-115.340;2023-11-21T01:55:55;3.81;37.43
74540;SHT31;66042;51.090;-115.340;2023-11-21T01:58:23;3.80;37.50
74540;SHT31;66042;51.090;-115.340;2023-11-21T02:00:50;3.80;37.41
74540;SHT31;66042;51.090;-115.340;2023-11-21T02:03:20;3.81;37.46
74540;SHT31;66042;51.090;-115.340;2023-11-21T02:05:47;3.80;37.62
74540;SHT31;66042;51.090;-115.340;2023-11-21T02:08:14;3.77;37.82
74540;SHT31;66042;51.090;-115.340;2023-11-21T02:10:41;3.69;38.10
74540;SHT31;66042;51.090;-115.340;2023-11-21T02:13:08;3.58;38.41
74540;SHT31;66042;51.090;-115.340;2023-11-21T02:15:36;3.48;38.61
74540;SHT31;66042;51.090;-115.340;2023-11-21T02:18:04;3.41;38.52
74540;SHT31;66042;51.090;-115.340;2023-11-21T02:20:31;3.38;38.74
74540;SHT31;66042;51.090;-115.340;2023-11-21T02:23:00;3.39;38.65
74540;SHT31;66042;51.090;-115.340;2023-11-21T02:25:28;3.42;38.59
74540;SHT31;66042;51.090;-115.340;2023-11-21T02:28:03;3.46;38.52
74540;SHT31;66042;51.090;-115.340;2023-11-21T02:30:32;3.47;38.63
74540;SHT31;66042;51.090;-115.340;2023-11-21T02:33:00;3.49;38.69
74540;SHT31;66042;51.090;-115.340;2023-11-21T02:35:27;3.49;38.68
74540;SHT31;66042;51.090;-115.340;2023-11-21T02:37:56;3.50;38.81
74540;SHT31;66042;51.090;-115.340;2023-11-21T02:40:23;3.48;38.83
74540;SHT31;66042;51.090;-115.340;2023-11-21T02:42:52;3.49;38.73
74540;SHT31;66042;51.090;-115.340;2023-11-21T02:45:19;3.50;38.70
74540;SHT31;66042;51.090;-115.340;2023-11-21T02:47:47;3.51;38.90
74540;SHT31;66042;51.090;-115.340;2023-11-21T02:50:14;3.49;39.09
74540;SHT31;66042;51.090;-115.340;2023-11-21T02:52:44;3.48;38.96
74540;SHT31;66042;51.090;-115.340;2023-11-21T02:55:11;3.49;38.93
74540;SHT31;66042;51.090;-115.340;2023-11-21T02:57:38;3.51;38.91
74540;SHT31;66042;51.090;-115.340;2023-11-21T03:00:05;3.54;38.94
74540;SHT31;66042;51.090;-115.340;2023-11-21T03:02:35;3.54;38.91
74540;SHT31;66042;51.090;-115.340;2023-11-21T03:05:04;3.56;39.17
74540;SHT31;66042;51.090;-115.340;2023-11-21T03:07:39;3.54;39.09
74540;SHT31;66042;51.090;-115.340;2023-11-21T03:10:07;3.55;39.11
74540;SHT31;66042;51.090;-115.340;2023-11-21T03:12:37;3.57;39.15
74540;SHT31;66042;51.090;-115.340;2023-11-21T03:15:05;3.59;39.22
74540;SHT31;66042;51.090;-115.340;2023-11-21T03:17:36;3.58;39.22
74540;SHT31;66042;51.090;-115.340;2023-11-21T03:20:04;3.57;39.21
74540;SHT31;66042;51.090;-115.340;2023-11-21T03:22:32;3.59;39.19
74540;SHT31;66042;51.090;-115.340;2023-11-21T03:24:59;3.59;38.99
74540;SHT31;66042;51.090;-115.340;2023-11-21T03:27:30;3.59;38.91
74540;SHT31;66042;51.090;-115.340;2023-11-21T03:29:57;3.62;38.97
74540;SHT31;66042;51.090;-115.340;2023-11-21T03:32:24;3.63;39.02
74540;SHT31;66042;51.090;-115.340;2023-11-21T03:34:54;3.65;39.11
74540;SHT31;66042;51.090;-115.340;2023-11-21T03:37:25;3.63;39.18
74540;SHT31;66042;51.090;-115.340;2023-11-21T03:39:56;3.63;39.21
74540;SHT31;66042;51.090;-115.340;2023-11-21T03:42:29;3.64;39.05
74540;SHT31;66042;51.090;-115.340;2023-11-21T03:44:58;3.65;39.00
74540;SHT31;66042;51.090;-115.340;2023-11-21T03:47:46;3.67;39.07
74540;SHT31;66042;51.090;-115.340;2023-11-21T03:50:19;3.66;39.06
74540;SHT31;66042;51.090;-115.340;2023-11-21T03:53:12;3.65;39.05
74540;SHT31;66042;51.090;-115.340;2023-11-21T03:55:45;3.63;39.20
74540;SHT31;66042;51.090;-115.340;2023-11-21T03:58:32;3.62;39.24
74540;SHT31;66042;51.090;-115.340;2023-11-21T04:01:22;3.62;39.21
74540;SHT31;66042;51.090;-115.340;2023-11-21T04:04:01;3.62;39.23
74540;SHT31;66042;51.090;-115.340;2023-11-21T04:06:32;3.61;39.43
74540;SHT31;66042;51.090;-115.340;2023-11-21T04:09:12;3.60;39.50
74540;SHT31;66042;51.090;-115.340;2023-11-21T04:12:24;3.59;39.41
74540;SHT31;66042;51.090;-115.340;2023-11-21T04:15:35;3.55;39.61
74540;SHT31;66042;51.090;-115.340;2023-11-21T04:18:54;3.50;39.61
74540;SHT31;66042;51.090;-115.340;2023-11-21T04:21:24;3.50;39.48
74540;SHT31;66042;51.090;-115.340;2023-11-21T04:24:05;3.52;39.40
74540;SHT31;66042;51.090;-115.340;2023-11-21T04:27:17;3.54;39.34
74540;SHT31;66042;51.090;-115.340;2023-11-21T04:30:34;3.58;39.28
74540;SHT31;66042;51.090;-115.340;2023-11-21T04:33:16;3.59;39.35
74540;SHT31;66042;51.090;-115.340;2023-11-21T04:36:30;3.60;39.33
74540;SHT31;66042;51.090;-115.340;2023-11-21T04:39:23;3.56;39.29
74540;SHT31;66042;51.090;-115.340;2023-11-21T04:44:39;3.59;39.27
74540;SHT31;66042;51.090;-115.340;2023-11-21T04:47:06;3.60;39.31
74540;SHT31;66042;51.090;-115.340;2023-11-21T04:49:41;3.60;39.40
74540;SHT31;66042;51.090;-115.340;2023-11-21T04:52:09;3.59;39.34
74540;SHT31;66042;51.090;-115.340;2023-11-21T04:55:05;3.57;39.56
74540;SHT31;66042;51.090;-115.340;2023-11-21T04:57:36;3.52;39.70
74540;SHT31;66042;51.090;-115.340;2023-11-21T05:00:12;3.47;39.94
74540;SHT31;66042;51.090;-115.340;2023-11-21T05:02:59;3.43;39.93
74540;SHT31;66042;51.090;-115.340;2023-11-21T05:05:29;3.41;39.95
74540;SHT31;66042;51.090;-115.340;2023-11-21T05:08:03;3.42;39.89
74540;SHT31;66042;51.090;-115.340;2023-11-21T05:10:34;3.42;39.95
74540;SHT31;66042;51.090;-115.340;2023-11-21T05:13:10;3.43;40.05
74540;SHT31;66042;51.090;-115.340;2023-11-21T05:16:09;3.39;40.25
74540;SHT31;66042;51.090;-115.340;2023-11-21T05:19:05;3.37;40.17
74540;SHT31;66042;51.090;-115.340;2023-11-21T05:22:00;3.31;40.43
74540;SHT31;66042;51.090;-115.340;2023-11-21T05:24:32;3.26;40.61
74540;SHT31;66042;51.090;-115.340;2023-11-21T05:27:10;3.23;40.74
74540;SHT31;66042;51.090;-115.340;2023-11-21T05:29:47;3.19;40.92
74540;SHT31;66042;51.090;-115.340;2023-11-21T05:32:41;3.18;40.75
74540;SHT31;66042;51.090;-115.340;2023-11-21T05:35:27;3.22;40.84
74540;SHT31;66042;51.090;-115.340;2023-11-21T05:38:19;3.23;40.75
74540;SHT31;66042;51.090;-115.340;2023-11-21T05:41:14;3.26;40.76
74540;SHT31;66042;51.090;-115.340;2023-11-21T05:43:45;3.29;40.90
74540;SHT31;66042;51.090;-115.340;2023-11-21T05:46:22;3.28;41.00
74540;SHT31;66042;51.090;-115.340;2023-11-21T05:48:56;3.24;41.25
74540;SHT31;66042;51.090;-115.340;2023-11-21T05:51:23;3.19;41.43
74540;SHT31;66042;51.090;-115.340;2023-11-21T05:53:51;3.09;41.93
74540;SHT31;66042;51.090;-115.340;2023-11-21T05:56:27;2.96;42.18
74540;SHT31;66042;51.090;-115.340;2023-11-21T05:59:12;2.84;42.63
74540;SHT31;66042;51.090;-115.340;2023-11-21T06:01:40;2.78;42.54
74540;SHT31;66042;51.090;-115.340;2023-11-21T06:04:08;2.82;42.25
74540;SHT31;66042;51.090;-115.340;2023-11-21T06:10:07;2.88;42.56
74540;SHT31;66042;51.090;-115.340;2023-11-21T06:15:40;2.83;42.56
74540;SHT31;66042;51.090;-115.340;2023-11-21T06:18:30;2.83;42.53
74540;SHT31;66042;51.090;-115.340;2023-11-21T06:21:29;2.85;42.42
74540;SHT31;66042;51.090;-115.340;2023-11-21T06:24:16;2.88;42.49
74540;SHT31;66042;51.090;-115.340;2023-11-21T06:26:59;2.86;42.79
74540;SHT31;66042;51.090;-115.340;2023-11-21T06:30:17;2.84;42.63
74540;SHT31;66042;51.090;-115.340;2023-11-21T06:33:07;2.84;42.78
74540;SHT31;66042;51.090;-115.340;2023-11-21T06:35:57;2.67;43.42
74540;SHT31;66042;51.090;-115.340;2023-11-21T06:38:46;2.51;43.82
74540;SHT31;66042;51.090;-115.340;2023-11-21T06:41:45;2.39;44.09
74540;SHT31;66042;51.090;-115.340;2023-11-21T06:44:28;2.32;44.36
74540;SHT31;66042;51.090;-115.340;2023-11-21T06:47:10;2.26;44.47
74540;SHT31;66042;51.090;-115.340;2023-11-21T06:49:41;2.23;44.54
74540;SHT31;66042;51.090;-115.340;2023-11-21T06:52:19;2.21;44.48
74540;SHT31;66042;51.090;-115.340;2023-11-21T06:54:46;2.26;44.48
74540;SHT31;66042;51.090;-115.340;2023-11-21T06:57:25;2.29;44.43
74540;SHT31;66042;51.090;-115.340;2023-11-21T07:00:07;2.36;44.24
74540;SHT31;66042;51.090;-115.340;2023-11-21T07:02:35;2.38;44.37
74540;SHT31;66042;51.090;-115.340;2023-11-21T07:05:02;2.35;44.52
74540;SHT31;66042;51.090;-115.340;2023-11-21T07:07:41;2.31;44.53
74540;SHT31;66042;51.090;-115.340;2023-11-21T07:10:31;2.26;44.70
74540;SHT31;66042;51.090;-115.340;2023-11-21T07:13:05;2.28;44.50
74540;SHT31;66042;51.090;-115.340;2023-11-21T07:15:41;2.31;44.50
74540;SHT31;66042;51.090;-115.340;2023-11-21T07:18:19;2.36;44.47
74540;SHT31;66042;51.090;-115.340;2023-11-21T07:20:52;2.40;44.21
74540;SHT31;66042;51.090;-115.340;2023-11-21T07:23:22;2.46;43.87
74540;SHT31;66042;51.090;-115.340;2023-11-21T07:25:53;2.51;43.76
74540;SHT31;66042;51.090;-115.340;2023-11-21T07:28:26;2.54;43.86
74540;SHT31;66042;51.090;-115.340;2023-11-21T07:31:19;2.55;43.85
74540;SHT31;66042;51.090;-115.340;2023-11-21T07:34:18;2.59;43.78
74540;SHT31;66042;51.090;-115.340;2023-11-21T07:39:56;2.55;44.15
74540;SHT31;66042;51.090;-115.340;2023-11-21T07:42:46;2.42;44.48
74540;SHT31;66042;51.090;-115.340;2023-11-21T07:45:17;2.36;44.57
74540;SHT31;66042;51.090;-115.340;2023-11-21T07:47:47;2.30;44.66
74540;SHT31;66042;51.090;-115.340;2023-11-21T07:50:17;2.29;44.79
74540;SHT31;66042;51.090;-115.340;2023-11-21T07:52:48;2.29;44.72
74540;SHT31;66042;51.090;-115.340;2023-11-21T07:55:23;2.31;44.83
74540;SHT31;66042;51.090;-115.340;2023-11-21T07:58:05;2.26;45.05
74540;SHT31;66042;51.090;-115.340;2023-11-21T08:00:35;2.27;44.91
74540;SHT31;66042;51.090;-115.340;2023-11-21T08:03:19;2.30;44.76
74540;SHT31;66042;51.090;-115.340;2023-11-21T08:05:46;2.32;44.90
74540;SHT31;66042;51.090;-115.340;2023-11-21T08:08:13;2.32;44.81
74540;SHT31;66042;51.090;-115.340;2023-11-21T08:10:46;2.34;44.77
74540;SHT31;66042;51.090;-115.340;2023-11-21T08:13:22;2.34;44.95
74540;SHT31;66042;51.090;-115.340;2023-11-21T08:15:56;2.32;45.03
74540;SHT31;66042;51.090;-115.340;2023-11-21T08:18:28;2.32;45.09
74540;SHT31;66042;51.090;-115.340;2023-11-21T08:20:55;2.29;45.27
74540;SHT31;66042;51.090;-115.340;2023-11-21T08:23:23;2.29;45.18
74540;SHT31;66042;51.090;-115.340;2023-11-21T08:25:53;2.33;45.07
74540;SHT31;66042;51.090;-115.340;2023-11-21T08:28:20;2.36;44.99
74540;SHT31;66042;51.090;-115.340;2023-11-21T08:30:51;2.37;45.18
74540;SHT31;66042;51.090;-115.340;2023-11-21T08:33:19;2.33;45.45
74540;SHT31;66042;51.090;-115.340;2023-11-21T08:35:46;2.26;45.58
74540;SHT31;66042;51.090;-115.340;2023-11-21T08:38:14;2.24;45.57
74540;SHT31;66042;51.090;-115.340;2023-11-21T08:40:41;2.24;45.62
74540;SHT31;66042;51.090;-115.340;2023-11-21T08:43:08;2.22;45.76
74540;SHT31;66042;51.090;-115.340;2023-11-21T08:45:37;2.22;45.81
74540;SHT31;66042;51.090;-115.340;2023-11-21T08:48:04;2.19;46.14
74540;SHT31;66042;51.090;-115.340;2023-11-21T08:50:32;2.11;46.38
74540;SHT31;66042;51.090;-115.340;2023-11-21T08:52:59;2.03;46.49
74540;SHT31;66042;51.090;-115.340;2023-11-21T08:55:27;1.99;46.71
74540;SHT31;66042;51.090;-115.340;2023-11-21T08:57:53;1.96;46.81
74540;SHT31;66042;51.090;-115.340;2023-11-21T09:00:21;1.94;46.91
74540;SHT31;66042;51.090;-115.340;2023-11-21T09:02:49;1.90;47.03
74540;SHT31;66042;51.090;-115.340;2023-11-21T09:05:15;1.90;46.98
74540;SHT31;66042;51.090;-115.340;2023-11-21T09:07:44;1.95;46.82
74540;SHT31;66042;51.090;-115.340;2023-11-21T09:10:12;1.95;46.85
74540;SHT31;66042;51.090;-115.340;2023-11-21T09:12:40;1.92;47.05
74540;SHT31;66042;51.090;-115.340;2023-11-21T09:15:08;1.85;47.36
74540;SHT31;66042;51.090;-115.340;2023-11-21T09:17:36;1.83;47.48
74540;SHT31;66042;51.090;-115.340;2023-11-21T09:20:04;1.81;47.48
74540;SHT31;66042;51.090;-115.340;2023-11-21T09:22:35;1.79;47.55
74540;SHT31;66042;51.090;-115.340;2023-11-21T09:25:02;1.82;47.48
74540;SHT31;66042;51.090;-115.340;2023-11-21T09:27:55;1.87;47.40
74540;SHT31;66042;51.090;-115.340;2023-11-21T09:30:25;1.89;47.41
74540;SHT31;66042;51.090;-115.340;2023-11-21T09:32:59;1.92;47.37
74540;SHT31;66042;51.090;-115.340;2023-11-21T09:35:30;1.95;47.33
74540;SHT31;66042;51.090;-115.340;2023-11-21T09:38:10;1.98;47.31
74540;SHT31;66042;51.090;-115.340;2023-11-21T09:40:40;2.01;47.25
74540;SHT31;66042;51.090;-115.340;2023-11-21T09:43:32;2.02;47.23
74540;SHT31;66042;51.090;-115.340;2023-11-21T09:46:01;2.00;47.33
74540;SHT31;66042;51.090;-115.340;2023-11-21T09:48:36;2.00;47.30
74540;SHT31;66042;51.090;-115.340;2023-11-21T09:51:07;1.96;47.43
74540;SHT31;66042;51.090;-115.340;2023-11-21T09:53:49;1.92;47.52
74540;SHT31;66042;51.090;-115.340;2023-11-21T09:56:24;1.94;47.51
74540;SHT31;66042;51.090;-115.340;2023-11-21T09:59:05;1.91;47.66
74540;SHT31;66042;51.090;-115.340;2023-11-21T10:04:58;1.72;48.07
74540;SHT31;66042;51.090;-115.340;2023-11-21T10:07:29;1.74;48.09
74540;SHT31;66042;51.090;-115.340;2023-11-21T10:10:02;1.78;48.00
74540;SHT31;66042;51.090;-115.340;2023-11-21T10:12:31;1.80;47.92
74540;SHT31;66042;51.090;-115.340;2023-11-21T10:15:00;1.76;48.11
74540;SHT31;66042;51.090;-115.340;2023-11-21T10:17:34;1.59;48.60
74540;SHT31;66042;51.090;-115.340;2023-11-21T10:20:14;1.47;48.95
74540;SHT31;66042;51.090;-115.340;2023-11-21T10:22:42;1.40;49.10
74540;SHT31;66042;51.090;-115.340;2023-11-21T10:25:09;1.42;49.05
74540;SHT31;66042;51.090;-115.340;2023-11-21T10:27:40;1.43;49.10
74540;SHT31;66042;51.090;-115.340;2023-11-21T10:30:09;1.43;49.21
74540;SHT31;66042;51.090;-115.340;2023-11-21T10:32:38;1.36;49.52
74540;SHT31;66042;51.090;-115.340;2023-11-21T10:35:06;1.21;49.95
74540;SHT31;66042;51.090;-115.340;2023-11-21T10:37:36;1.08;50.23
74540;SHT31;66042;51.090;-115.340;2023-11-21T10:40:10;1.03;50.53
74540;SHT31;66042;51.090;-115.340;2023-11-21T10:42:40;0.97;50.54
74540;SHT31;66042;51.090;-115.340;2023-11-21T10:45:07;1.00;50.40
74540;SHT31;66042;51.090;-115.340;2023-11-21T10:47:42;1.03;50.54
74540;SHT31;66042;51.090;-115.340;2023-11-21T10:50:10;0.98;50.63
74540;SHT31;66042;51.090;-115.340;2023-11-21T10:52:39;0.94;50.82
74540;SHT31;66042;51.090;-115.340;2023-11-21T10:55:21;0.93;50.82
74540;SHT31;66042;51.090;-115.340;2023-11-21T10:57:51;0.93;50.85
74540;SHT31;66042;51.090;-115.340;2023-11-21T11:00:23;0.93;50.94
74540;SHT31;66042;51.090;-115.340;2023-11-21T11:02:52;0.90;50.99
74540;SHT31;66042;51.090;-115.340;2023-11-21T11:05:22;0.93;50.94
74540;SHT31;66042;51.090;-115.340;2023-11-21T11:08:08;0.97;50.89
74540;SHT31;66042;51.090;-115.340;2023-11-21T11:10:38;1.00;50.77
74540;SHT31;66042;51.090;-115.340;2023-11-21T11:13:06;1.01;50.87
74540;SHT31;66042;51.090;-115.340;2023-11-21T11:15:33;0.88;51.26
74540;SHT31;66042;51.090;-115.340;2023-11-21T11:18:00;0.77;51.58
74540;SHT31;66042;51.090;-115.340;2023-11-21T11:20:31;0.75;51.60
74540;SHT31;66042;51.090;-115.340;2023-11-21T11:32:14;0.33;53.58
74540;SHT31;66042;51.090;-115.340;2023-11-21T11:35:04;0.20;53.83
74540;SHT31;66042;51.090;-115.340;2023-11-21T11:37:43;0.12;54.10
74540;SHT31;66042;51.090;-115.340;2023-11-21T11:40:13;0.10;54.00
74540;SHT31;66042;51.090;-115.340;2023-11-21T11:42:55;0.12;53.93
74540;SHT31;66042;51.090;-115.340;2023-11-21T11:45:34;0.14;53.87
74540;SHT31;66042;51.090;-115.340;2023-11-21T11:48:05;0.22;53.82
74540;SHT31;66042;51.090;-115.340;2023-11-21T11:50:32;0.22;53.76
74540;SHT31;66042;51.090;-115.340;2023-11-21T11:53:12;0.23;53.98
74540;SHT31;66042;51.090;-115.340;2023-11-21T11:55:41;0.21;53.94
74540;SHT31;66042;51.090;-115.340;2023-11-21T11:58:09;0.22;54.00
74540;SHT31;66042;51.090;-115.340;2023-11-21T12:00:37;0.17;54.33
74540;SHT31;66042;51.090;-115.340;2023-11-21T12:03:06;0.12;54.31
74540;SHT31;66042;51.090;-115.340;2023-11-21T12:05:35;0.15;54.20
74540;SHT31;66042;51.090;-115.340;2023-11-21T12:08:07;0.14;54.37
74540;SHT31;66042;51.090;-115.340;2023-11-21T12:10:35;0.06;54.55
74540;SHT31;66042;51.090;-115.340;2023-11-21T12:13:08;0.04;54.69
74540;SHT31;66042;51.090;-115.340;2023-11-21T12:15:38;0.04;54.66
74540;SHT31;66042;51.090;-115.340;2023-11-21T12:18:06;0.02;54.74
74540;SHT31;66042;51.090;-115.340;2023-11-21T12:20:33;-0.00;55.03
74540;SHT31;66042;51.090;-115.340;2023-11-21T12:23:08;-0.02;54.88
74540;SHT31;66042;51.090;-115.340;2023-11-21T12:25:36;-0.00;54.85
74540;SHT31;66042;51.090;-115.340;2023-11-21T12:28:05;0.02;54.67
74540;SHT31;66042;51.090;-115.340;2023-11-21T12:30:33;0.06;54.72
74540;SHT31;66042;51.090;-115.340;2023-11-21T12:33:03;0.06;54.63
74540;SHT31;66042;51.090;-115.340;2023-11-21T12:35:32;0.13;54.46
74540;SHT31;66042;51.090;-115.340;2023-11-21T12:38:02;0.15;54.39
74540;SHT31;66042;51.090;-115.340;2023-11-21T12:40:30;0.19;54.41
74540;SHT31;66042;51.090;-115.340;2023-11-21T12:42:58;0.13;54.53
74540;SHT31;66042;51.090;-115.340;2023-11-21T12:45:27;0.13;54.42
74540;SHT31;66042;51.090;-115.340;2023-11-21T12:50:33;0.12;54.53
74540;SHT31;66042;51.090;-115.340;2023-11-21T12:55:31;0.14;54.49
74540;SHT31;66042;51.090;-115.340;2023-11-21T12:58:03;0.17;54.42
74540;SHT31;66042;51.090;-115.340;2023-11-21T13:01:08;0.13;54.51
74540;SHT31;66042;51.090;-115.340;2023-11-21T13:03:31;0.15;54.32
74540;SHT31;66042;51.090;-115.340;2023-11-21T13:05:58;0.19;54.31
74540;SHT31;66042;51.090;-115.340;2023-11-21T13:08:26;0.21;54.17
74540;SHT31;66042;51.090;-115.340;2023-11-21T13:10:56;0.26;54.01
74540;SHT31;66042;51.090;-115.340;2023-11-21T13:13:24;0.25;54.09
74540;SHT31;66042;51.090;-115.340;2023-11-21T13:15:55;0.22;54.05
74540;SHT31;66042;51.090;-115.340;2023-11-21T13:18:23;0.19;54.20
74540;SHT31;66042;51.090;-115.340;2023-11-21T13:20:57;0.19;54.10
74540;SHT31;66042;51.090;-115.340;2023-11-21T13:23:28;0.23;54.03
74540;SHT31;66042;51.090;-115.340;2023-11-21T13:26:01;0.25;53.90
74540;SHT31;66042;51.090;-115.340;2023-11-21T13:28:33;0.23;54.00
74540;SHT31;66042;51.090;-115.340;2023-11-21T13:31:03;0.22;53.92
74540;SHT31;66042;51.090;-115.340;2023-11-21T13:33:51;0.25;53.83
74540;SHT31;66042;51.090;-115.340;2023-11-21T13:36:25;0.26;53.80
74540;SHT31;66042;51.090;-115.340;2023-11-21T13:38:55;0.25;53.79
74540;SHT31;66042;51.090;-115.340;2023-11-21T13:41:24;0.24;53.85
74540;SHT31;66042;51.090;-115.340;2023-11-21T13:43:57;0.25;53.73
74540;SHT31;66042;51.090;-115.340;2023-11-21T13:46:51;0.27;53.62
74540;SHT31;66042;51.090;-115.340;2023-11-21T13:49:19;0.27;53.64
74540;SHT31;66042;51.090;-115.340;2023-11-21T13:51:46;0.22;53.67
74540;SHT31;66042;51.090;-115.340;2023-11-21T13:54:17;0.16;53.74
74540;SHT31;66042;51.090;-115.340;2023-11-21T13:56:46;0.14;53.81
74540;SHT31;66042;51.090;-115.340;2023-11-21T13:59:15;0.13;53.87
74540;SHT31;66042;51.090;-115.340;2023-11-21T14:01:48;0.07;54.20
74540;SHT31;66042;51.090;-115.340;2023-11-21T14:04:20;0.02;54.17
74540;SHT31;66042;51.090;-115.340;2023-11-21T14:07:15;0.04;53.85
74540;SHT31;66042;51.090;-115.340;2023-11-21T14:10:00;0.06;53.98
74540;SHT31;66042;51.090;-115.340;2023-11-21T14:12:29;0.06;53.82
74540;SHT31;66042;51.090;-115.340;2023-11-21T14:14:59;0.05;54.15
74540;SHT31;66042;51.090;-115.340;2023-11-21T14:17:30;0.03;53.98
74540;SHT31;66042;51.090;-115.340;2023-11-21T14:19:57;0.06;53.79
74540;SHT31;66042;51.090;-115.340;2023-11-21T14:22:25;0.11;53.61
74540;SHT31;66042;51.090;-115.340;2023-11-21T14:24:52;0.15;53.35
74540;SHT31;66042;51.090;-115.340;2023-11-21T14:27:21;0.21;53.21
74540;SHT31;66042;51.090;-115.340;2023-11-21T14:29:48;0.25;52.94
74540;SHT31;66042;51.090;-115.340;2023-11-21T14:32:14;0.29;52.74
74540;SHT31;66042;51.090;-115.340;2023-11-21T14:34:42;0.31;52.84
74540;SHT31;66042;51.090;-115.340;2023-11-21T14:37:12;0.32;52.75
74540;SHT31;66042;51.090;-115.340;2023-11-21T14:39:40;0.32;52.76
74540;SHT31;66042;51.090;-115.340;2023-11-21T14:42:10;0.32;52.76
74540;SHT31;66042;51.090;-115.340;2023-11-21T14:44:40;0.37;52.40
74540;SHT31;66042;51.090;-115.340;2023-11-21T14:47:08;0.43;52.30
74540;SHT31;66042;51.090;-115.340;2023-11-21T14:49:42;0.48;52.19
74540;SHT31;66042;51.090;-115.340;2023-11-21T14:52:19;0.51;52.11
74540;SHT31;66042;51.090;-115.340;2023-11-21T14:55:03;0.52;52.00
74540;SHT31;66042;51.090;-115.340;2023-11-21T14:57:49;0.56;51.76
74540;SHT31;66042;51.090;-115.340;2023-11-21T15:00:20;0.62;51.57
74540;SHT31;66042;51.090;-115.340;2023-11-21T15:03:00;0.68;51.36
74540;SHT31;66042;51.090;-115.340;2023-11-21T15:05:28;0.72;51.17
74540;SHT31;66042;51.090;-115.340;2023-11-21T15:07:56;0.74;51.15
74540;SHT31;66042;51.090;-115.340;2023-11-21T15:10:39;0.75;51.77
74540;SHT31;66042;51.090;-115.340;2023-11-21T15:13:14;0.81;51.55
74540;SHT31;66042;51.090;-115.340;2023-11-21T15:15:42;0.84;50.93
74540;SHT31;66042;51.090;-115.340;2023-11-21T15:18:09;0.85;50.84
74540;SHT31;66042;51.090;-115.340;2023-11-21T15:20:42;0.86;50.77
74540;SHT31;66042;51.090;-115.340;2023-11-21T15:23:09;0.89;50.44
74540;SHT31;66042;51.090;-115.340;2023-11-21T15:25:38;0.94;50.22
74540;SHT31;66042;51.090;-115.340;2023-11-21T15:28:05;0.99;49.98
74540;SHT31;66042;51.090;-115.340;2023-11-21T15:30:32;1.04;49.86
74540;SHT31;66042;51.090;-115.340;2023-11-21T15:33:00;1.05;49.79
74540;SHT31;66042;51.090;-115.340;2023-11-21T15:35:29;1.06;49.63
74540;SHT31;66042;51.090;-115.340;2023-11-21T15:37:57;1.07;49.62
74540;SHT31;66042;51.090;-115.340;2023-11-21T15:40:24;1.11;49.39
74540;SHT31;66042;51.090;-115.340;2023-11-21T15:42:52;1.15;48.98
74540;SHT31;66042;51.090;-115.340;2023-11-21T15:45:20;1.19;48.91
74540;SHT31;66042;51.090;-115.340;2023-11-21T15:47:50;1.24;48.83
74540;SHT31;66042;51.090;-115.340;2023-11-21T15:50:22;1.29;48.68
74540;SHT31;66042;51.090;-115.340;2023-11-21T15:52:50;1.32;48.45
74540;SHT31;66042;51.090;-115.340;2023-11-21T15:55:17;1.34;48.50
74540;SHT31;66042;51.090;-115.340;2023-11-21T15:57:44;1.36;48.39
74540;SHT31;66042;51.090;-115.340;2023-11-21T16:00:11;1.38;48.37
74540;SHT31;66042;51.090;-115.340;2023-11-21T16:02:45;1.40;48.29
74540;SHT31;66042;51.090;-115.340;2023-11-21T16:05:12;1.42;48.26
74540;SHT31;66042;51.090;-115.340;2023-11-21T16:07:42;1.45;48.08